Time;durP1;ratioP1;P1;durP2;ratioP2;P2;SDS_P1;SDS_P2;PMS_P1;PMS_P2;Temp;Humidity;BMP_temperature;BMP_pressure;BME280_temperature;BME280_humidity;BME280_pressure;Samples;Min_cycle;Max_cycle;Signal;HPM_P1;HPM_P2
2021/12/01 00:00:23;;;;;;;34.55;16.52;;;10.10;99.90;;;;;;5034812;28;20230;-77
2021/12/01 00:02:53;;;;;;;33.70;17.73;;;10.10;99.90;;;;;;5034797;28;20075;-78
2021/12/01 00:05:24;;;;;;;35.00;17.33;;;10.10;99.90;;;;;;5034571;28;20033;-78
2021/12/01 00:07:51;;;;;;;37.05;19.00;;;10.20;99.90;;;;;;5034751;28;20151;-77
2021/12/01 00:10:18;;;;;;;42.53;20.10;;;10.10;99.90;;;;;;5034632;28;20037;-78
2021/12/01 00:12:44;;;;;;;47.63;20.38;;;10.10;99.90;;;;;;5049684;28;20494;-77
2021/12/01 00:15:10;;;;;;;48.75;21.88;;;10.10;99.90;;;;;;5049760;28;20033;-77
2021/12/01 00:17:36;;;;;;;44.67;20.75;;;10.10;99.90;;;;;;5052984;28;20021;-77
2021/12/01 00:20:08;;;;;;;45.45;21.58;;;10.10;99.90;;;;;;5053142;28;20021;-77
2021/12/01 00:22:34;;;;;;;41.33;21.17;;;;;;;;;;5050192;28;20025;-78
2021/12/01 00:25:00;;;;;;;48.15;21.75;;;;;;;;;;5034287;28;20100;-77
2021/12/01 00:27:26;;;;;;;46.85;21.58;;;;;;;;;;5051039;28;20029;-77
2021/12/01 00:29:52;;;;;;;42.97;21.95;;;;;;;;;;5053929;28;20036;-76
2021/12/01 00:32:18;;;;;;;31.38;18.80;;;;;;;;;;5053926;28;20029;-77
2021/12/01 00:34:45;;;;;;;45.65;21.75;;;;;;;;;;5053760;28;20049;-76
2021/12/01 00:37:10;;;;;;;31.50;17.58;;;10.20;99.90;;;;;;5052304;28;20672;-77
2021/12/01 00:39:36;;;;;;;36.03;19.30;;;10.30;99.90;;;;;;5053902;28;20096;-77
2021/12/01 00:42:02;;;;;;;24.60;15.18;;;10.20;99.90;;;;;;5052289;28;20501;-77
2021/12/01 00:44:30;;;;;;;28.52;14.88;;;10.30;99.90;;;;;;5053946;28;20096;-77
2021/12/01 00:49:28;;;;;;;25.30;16.58;;;10.40;99.90;;;;;;5053727;28;20029;-77
2021/12/01 00:51:54;;;;;;;38.53;19.90;;;10.40;99.90;;;;;;5048846;28;20034;-76
2021/12/01 00:54:20;;;;;;;20.92;13.75;;;10.40;99.90;;;;;;5032798;28;20025;-77
2021/12/01 00:56:47;;;;;;;24.40;15.02;;;10.40;99.90;;;;;;5033459;28;20436;-77
2021/12/01 00:59:13;;;;;;;21.20;15.02;;;10.40;99.90;;;;;;5033427;28;20018;-77
2021/12/01 01:01:38;;;;;;;22.38;15.38;;;10.40;99.90;;;;;;5060572;28;20455;-77
2021/12/01 01:04:04;;;;;;;24.00;14.65;;;10.60;99.90;;;;;;5073614;28;20020;-78
2021/12/01 01:06:30;;;;;;;21.00;13.20;;;10.40;99.90;;;;;;5072221;28;20028;-78
2021/12/01 01:08:55;;;;;;;23.55;14.63;;;10.50;99.90;;;;;;5073016;28;20032;-78
2021/12/01 01:16:52;;;;;;;21.33;14.55;;;10.50;99.90;;;;;;5073173;28;20039;-78
2021/12/01 01:19:19;;;;;;;21.92;13.85;;;10.50;99.90;;;;;;5052089;28;20429;-78
2021/12/01 01:21:49;;;;;;;21.25;13.95;;;10.40;99.90;;;;;;5053151;28;20032;-77
2021/12/01 01:24:16;;;;;;;22.75;14.55;;;10.50;99.90;;;;;;5051495;28;20025;-77
2021/12/01 01:26:42;;;;;;;21.52;14.40;;;10.50;99.90;;;;;;5052951;28;20041;-77
2021/12/01 01:29:08;;;;;;;21.83;12.65;;;10.50;99.90;;;;;;5053249;28;20407;-77
2021/12/01 01:31:35;;;;;;;22.83;13.18;;;10.50;99.90;;;;;;5052767;28;20041;-77
2021/12/01 01:34:01;;;;;;;17.25;10.20;;;;;;;;;;5052474;28;20124;-79
2021/12/01 01:36:28;;;;;;;20.10;11.73;;;;;;;;;;5051275;28;20029;-77
2021/12/01 01:38:55;;;;;;;19.83;12.75;;;10.50;99.90;;;;;;5053025;28;20021;-78
2021/12/01 01:41:21;;;;;;;20.08;11.95;;;;;;;;;;5052784;28;20048;-77
2021/12/01 01:43:47;;;;;;;21.88;11.48;;;;;;;;;;5052697;28;20021;-77
2021/12/01 01:46:13;;;;;;;19.00;11.10;;;;;;;;;;5052700;28;20450;-80
2021/12/01 01:48:55;;;;;;;16.48;11.40;;;10.60;99.90;;;;;;5052644;28;20025;-77
2021/12/01 01:51:24;;;;;;;15.43;11.00;;;10.50;99.90;;;;;;5052320;28;20190;-77
2021/12/01 01:53:53;;;;;;;17.23;10.00;;;;;;;;;;5052332;28;20100;-77
2021/12/01 01:56:19;;;;;;;19.83;11.20;;;10.50;99.90;;;;;;5052571;28;20096;-77
2021/12/01 01:58:45;;;;;;;11.93;9.57;;;10.50;99.90;;;;;;5051192;28;20379;-76
2021/12/01 02:02:01;;;;;;;9.57;7.85;;;10.50;99.90;;;;;;5051081;28;20141;-77
2021/12/01 02:04:00;;;;;;;14.23;10.65;;;;;;;;;;5051498;28;20056;-78
2021/12/01 02:06:26;;;;;;;16.10;11.23;;;10.40;99.90;;;;;;5052046;28;20032;-77
2021/12/01 02:08:54;;;;;;;16.05;11.73;;;10.40;99.90;;;;;;5052268;28;20017;-78
2021/12/01 02:11:21;;;;;;;13.88;11.20;;;10.40;99.90;;;;;;5051291;28;20394;-77
2021/12/01 02:13:48;;;;;;;11.05;9.25;;;10.30;99.90;;;;;;5052478;28;20463;-77
2021/12/01 02:16:15;;;;;;;8.43;7.00;;;10.30;99.90;;;;;;5050949;28;20025;-78
2021/12/01 02:18:41;;;;;;;8.30;6.25;;;10.40;99.90;;;;;;5051847;28;20387;-77
2021/12/01 02:21:12;;;;;;;8.77;7.43;;;;;;;;;;5052045;28;20382;-76
2021/12/01 02:23:41;;;;;;;6.50;5.90;;;10.40;99.90;;;;;;5051892;28;20375;-78
2021/12/01 02:26:08;;;;;;;5.97;5.38;;;10.30;99.90;;;;;;5050612;28;20135;-76
2021/12/01 02:28:35;;;;;;;6.53;5.22;;;10.30;99.90;;;;;;5052377;28;20033;-77
2021/12/01 02:31:01;;;;;;;6.43;4.80;;;10.30;99.90;;;;;;5051850;28;20029;-77
2021/12/01 02:33:27;;;;;;;6.32;5.28;;;10.30;99.90;;;;;;5051737;28;20116;-78
2021/12/01 02:35:53;;;;;;;6.20;5.60;;;10.10;99.90;;;;;;5052142;28;20069;-76
2021/12/01 02:38:19;;;;;;;5.95;4.60;;;10.90;99.90;;;;;;5052381;28;20032;-77
2021/12/01 02:40:46;;;;;;;9.75;6.55;;;10.20;99.90;;;;;;5051013;28;20384;-77
2021/12/01 02:43:12;;;;;;;6.20;5.60;;;10.10;99.90;;;;;;5050933;28;20322;-77
2021/12/01 02:45:39;;;;;;;6.72;6.05;;;10.20;99.90;;;;;;5050789;28;20483;-77
2021/12/01 02:48:06;;;;;;;7.45;5.80;;;10.10;99.90;;;;;;5050755;28;20091;-76
2021/12/01 02:50:32;;;;;;;7.18;6.25;;;10.00;99.90;;;;;;5043064;28;20177;-77
2021/12/01 02:52:58;;;;;;;8.73;5.75;;;10.00;99.90;;;;;;5032144;28;20056;-76
2021/12/01 02:55:27;;;;;;;9.60;5.45;;;10.00;99.90;;;;;;5032027;28;20071;-77
2021/12/01 02:57:54;;;;;;;6.95;5.90;;;;;;;;;;5032267;28;20452;-77
2021/12/01 03:00:21;;;;;;;6.70;5.50;;;;;;;;;;5032585;28;20093;-78
2021/12/01 03:02:47;;;;;;;7.38;6.50;;;9.90;99.90;;;;;;5030598;28;20037;-77
2021/12/01 03:05:15;;;;;;;6.50;5.68;;;9.80;99.90;;;;;;5032160;28;20484;-77
2021/12/01 03:07:43;;;;;;;5.97;5.22;;;9.90;99.90;;;;;;5031960;28;20037;-78
2021/12/01 03:10:09;;;;;;;7.20;6.22;;;9.80;99.90;;;;;;5032201;28;20036;-77
2021/12/01 03:12:38;;;;;;;7.97;6.40;;;9.90;99.90;;;;;;5030963;28;20025;-77
2021/12/01 03:15:06;;;;;;;9.70;6.40;;;9.90;99.90;;;;;;5032208;28;20030;-77
2021/12/01 03:17:32;;;;;;;7.47;5.35;;;9.90;99.90;;;;;;5032707;28;20483;-78
2021/12/01 03:19:59;;;;;;;7.60;5.93;;;;;;;;;;5051389;28;20036;-77
2021/12/01 03:22:25;;;;;;;8.20;6.30;;;9.80;99.90;;;;;;5055809;28;20028;-78
2021/12/01 03:24:51;;;;;;;7.63;6.13;;;9.80;99.90;;;;;;5054273;28;20035;-78
2021/12/01 03:27:18;;;;;;;9.07;5.47;;;9.80;99.90;;;;;;5071327;28;20042;-77
2021/12/01 03:29:46;;;;;;;11.00;6.57;;;9.80;99.90;;;;;;5075334;28;20112;-77
2021/12/01 03:32:13;;;;;;;7.18;5.70;;;9.70;99.90;;;;;;5075462;28;20024;-76
2021/12/01 03:34:39;;;;;;;8.18;6.07;;;;;;;;;;5073888;28;20468;-77
2021/12/01 03:37:05;;;;;;;8.70;5.95;;;;;;;;;;5075185;28;20102;-76
2021/12/01 03:39:31;;;;;;;7.68;6.13;;;9.70;99.90;;;;;;5075248;28;20464;-77
2021/12/01 03:41:57;;;;;;;10.88;5.43;;;9.60;99.90;;;;;;5075238;28;20025;-76
2021/12/01 03:44:22;;;;;;;7.60;5.57;;;9.60;99.90;;;;;;5075182;28;20085;-77
2021/12/01 03:46:48;;;;;;;7.53;6.25;;;9.60;99.90;;;;;;5075098;28;20085;-77
2021/12/01 03:49:14;;;;;;;7.40;5.70;;;9.60;99.90;;;;;;5075024;28;20025;-77
2021/12/01 03:51:39;;;;;;;6.22;5.35;;;9.60;99.90;;;;;;5054875;28;20029;-77
2021/12/01 03:54:05;;;;;;;6.55;5.65;;;9.60;99.90;;;;;;5053215;28;20086;-77
2021/12/01 03:56:33;;;;;;;6.10;5.50;;;9.60;99.90;;;;;;5053447;28;20489;-77
2021/12/01 03:58:59;;;;;;;6.07;5.28;;;9.60;99.90;;;;;;5054923;28;20023;-77
2021/12/01 04:01:25;;;;;;;6.38;5.30;;;9.60;99.90;;;;;;5054779;28;20051;-77
2021/12/01 04:03:51;;;;;;;5.93;4.75;;;9.60;99.90;;;;;;5053277;28;20021;-76
2021/12/01 04:06:16;;;;;;;4.75;4.25;;;9.60;99.90;;;;;;5054640;28;20082;-76
2021/12/01 04:08:42;;;;;;;5.90;5.00;;;9.70;99.90;;;;;;5054761;28;20425;-77
2021/12/01 04:11:08;;;;;;;5.03;4.45;;;9.60;99.90;;;;;;5053367;28;20537;-78
2021/12/01 04:13:33;;;;;;;5.13;4.35;;;9.60;99.90;;;;;;5054716;28;20827;-77
2021/12/01 04:15:59;;;;;;;4.88;4.28;;;9.60;99.90;;;;;;5054579;28;20025;-77
2021/12/01 04:18:25;;;;;;;5.70;4.07;;;9.60;99.90;;;;;;5053088;28;20033;-77
2021/12/01 04:20:51;;;;;;;5.22;4.28;;;9.60;99.90;;;;;;5052885;28;20025;-77
2021/12/01 04:23:16;;;;;;;4.65;3.88;;;9.50;99.90;;;;;;5045622;28;20039;-76
2021/12/01 04:25:42;;;;;;;4.43;3.50;;;9.50;99.90;;;;;;5039518;28;20020;-77
2021/12/01 04:28:07;;;;;;;4.30;3.85;;;9.50;99.90;;;;;;5070391;28;20171;-77
2021/12/01 04:30:33;;;;;;;4.25;3.25;;;9.40;99.90;;;;;;5053829;28;20501;-77
2021/12/01 04:33:00;;;;;;;5.75;3.60;;;9.40;99.90;;;;;;5053321;28;20072;-77
2021/12/01 04:35:27;;;;;;;6.35;3.97;;;9.40;99.90;;;;;;5053438;28;20081;-77
2021/12/01 04:37:54;;;;;;;4.43;3.28;;;9.30;99.90;;;;;;5053771;28;20043;-77
2021/12/01 04:40:20;;;;;;;5.82;4.10;;;9.30;99.90;;;;;;5053847;28;20028;-77
2021/12/01 04:42:46;;;;;;;3.72;2.40;;;;;;;;;;5053741;28;20021;-75
2021/12/01 04:45:17;;;;;;;6.90;4.38;;;9.30;99.90;;;;;;5053987;28;20493;-77
2021/12/01 04:47:52;;;;;;;6.45;4.32;;;9.20;99.90;;;;;;5052594;28;20036;-77
2021/12/01 04:50:23;;;;;;;5.00;4.03;;;9.20;99.90;;;;;;5046404;28;20033;-76
2021/12/01 04:52:49;;;;;;;5.85;4.03;;;9.10;99.90;;;;;;5033698;28;20057;-76
2021/12/01 04:55:15;;;;;;;5.35;4.13;;;9.10;99.90;;;;;;5033786;28;20060;-77
2021/12/01 04:57:42;;;;;;;4.88;3.90;;;9.10;99.90;;;;;;5032528;28;20021;-76
2021/12/01 05:00:13;;;;;;;6.38;4.32;;;9.00;99.90;;;;;;5033867;28;20109;-77
2021/12/01 05:02:39;;;;;;;5.20;4.30;;;9.00;99.90;;;;;;5032394;28;20067;-77
2021/12/01 05:05:06;;;;;;;7.20;5.25;;;9.00;99.90;;;;;;5033481;28;20017;-77
2021/12/01 05:07:32;;;;;;;6.80;4.40;;;9.00;99.90;;;;;;5032220;28;20040;-76
2021/12/01 05:09:57;;;;;;;7.53;5.55;;;9.00;99.90;;;;;;5032228;28;20030;-76
2021/12/01 05:12:24;;;;;;;8.57;5.85;;;9.00;99.90;;;;;;5033545;28;20018;-76
2021/12/01 05:14:50;;;;;;;7.53;6.50;;;8.80;99.90;;;;;;5033657;28;20456;-77
2021/12/01 05:17:17;;;;;;;7.75;6.32;;;8.90;99.90;;;;;;5033228;28;20460;-76
2021/12/01 05:19:43;;;;;;;8.77;6.00;;;9.00;99.90;;;;;;5041823;28;20025;-76
2021/12/01 05:22:09;;;;;;;7.88;6.10;;;8.80;99.90;;;;;;5053091;28;20675;-77
2021/12/01 05:24:35;;;;;;;10.55;6.75;;;8.80;99.90;;;;;;5053406;28;20456;-76
2021/12/01 05:27:00;;;;;;;8.55;5.85;;;8.90;99.90;;;;;;5051807;28;20056;-76
2021/12/01 05:29:26;;;;;;;8.68;6.80;;;8.90;99.90;;;;;;5053392;28;20063;-77
2021/12/01 05:31:54;;;;;;;7.78;5.45;;;8.90;99.90;;;;;;5052689;28;20044;-77
2021/12/01 05:34:20;;;;;;;7.82;4.93;;;8.90;99.90;;;;;;5052835;28;20123;-77
2021/12/01 05:36:45;;;;;;;8.95;5.70;;;8.80;99.90;;;;;;5052783;28;20119;-77
2021/12/01 05:39:11;;;;;;;8.05;6.30;;;8.90;99.90;;;;;;5052982;28;20025;-77
2021/12/01 05:41:37;;;;;;;8.25;6.13;;;8.80;99.90;;;;;;5053233;28;20836;-80
2021/12/01 05:44:03;;;;;;;8.93;5.85;;;8.80;99.90;;;;;;5053136;28;20033;-83
2021/12/01 05:46:28;;;;;;;9.05;5.18;;;8.80;99.90;;;;;;5053228;28;20466;-81
2021/12/01 05:48:55;;;;;;;5.95;4.60;;;8.80;99.90;;;;;;5053065;28;20378;-80
2021/12/01 05:51:21;;;;;;;7.13;4.65;;;8.80;99.90;;;;;;5048849;28;20037;-84
2021/12/01 05:53:48;;;;;;;5.20;4.57;;;8.80;99.90;;;;;;5033119;28;20021;-81
2021/12/01 05:56:14;;;;;;;5.13;4.05;;;8.80;99.90;;;;;;5033160;28;20025;-85
2021/12/01 05:58:40;;;;;;;4.35;3.83;;;8.80;99.90;;;;;;5033139;28;20036;-84
2021/12/01 06:01:06;;;;;;;6.75;4.20;;;;;;;;;;5033188;28;20029;-83
2021/12/01 06:03:32;;;;;;;8.88;4.47;;;;;;;;;;5033022;28;20072;-84
2021/12/01 06:05:58;;;;;;;5.22;3.63;;;8.80;99.90;;;;;;5033023;28;20022;-82
2021/12/01 06:08:24;;;;;;;5.05;4.13;;;8.80;99.90;;;;;;5033217;28;20033;-82
2021/12/01 06:10:50;;;;;;;6.50;4.10;;;;;;;;;;5031610;28;20026;-79
2021/12/01 06:13:17;;;;;;;5.50;4.28;;;8.80;99.90;;;;;;5033069;28;20029;-82
2021/12/01 06:15:44;;;;;;;5.60;4.32;;;8.70;99.90;;;;;;5033067;28;20022;-84
2021/12/01 06:18:11;;;;;;;8.02;4.53;;;8.70;99.90;;;;;;5048155;28;20021;-83
2021/12/01 06:20:38;;;;;;;6.20;3.92;;;8.70;99.90;;;;;;5048574;28;20460;-84
2021/12/01 06:23:03;;;;;;;6.35;4.85;;;8.80;99.90;;;;;;5052923;28;20032;-83
2021/12/01 06:25:29;;;;;;;4.75;3.92;;;8.70;99.90;;;;;;5051357;28;20029;-84
2021/12/01 06:27:55;;;;;;;8.18;4.43;;;8.80;99.90;;;;;;5051458;28;20035;-83
2021/12/01 06:30:22;;;;;;;5.82;4.20;;;8.80;99.90;;;;;;5052754;28;20033;-83
2021/12/01 06:32:48;;;;;;;6.97;4.43;;;8.80;99.90;;;;;;5052751;28;20033;-84
2021/12/01 06:35:14;;;;;;;3.78;3.03;;;8.70;99.90;;;;;;5052608;28;20499;-83
2021/12/01 06:37:40;;;;;;;3.38;2.85;;;8.70;99.90;;;;;;5052507;28;20044;-82
2021/12/01 06:40:07;;;;;;;4.53;2.95;;;8.70;99.90;;;;;;5052580;28;20017;-78
2021/12/01 06:42:35;;;;;;;4.55;3.40;;;8.70;99.90;;;;;;5052522;28;20021;-82
2021/12/01 06:45:01;;;;;;;4.25;3.38;;;8.70;99.90;;;;;;5052741;28;20032;-83
2021/12/01 06:47:27;;;;;;;5.50;3.83;;;8.70;99.90;;;;;;5052568;28;20021;-84
2021/12/01 06:49:53;;;;;;;4.47;3.80;;;8.70;99.90;;;;;;5052756;28;20028;-84
2021/12/01 06:52:19;;;;;;;4.10;3.20;;;8.80;99.90;;;;;;5054314;28;20479;-81
2021/12/01 06:54:44;;;;;;;5.20;3.40;;;8.80;99.90;;;;;;5056304;28;20151;-84
2021/12/01 06:57:10;;;;;;;4.95;3.25;;;8.80;99.90;;;;;;5056294;28;20028;-81
2021/12/01 06:59:36;;;;;;;5.53;4.15;;;8.80;99.90;;;;;;5056318;28;20147;-84
2021/12/01 07:02:02;;;;;;;5.28;4.00;;;8.80;99.90;;;;;;5056287;28;20029;-85
2021/12/01 07:04:27;;;;;;;4.53;3.80;;;8.80;99.90;;;;;;5056177;28;20025;-82
2021/12/01 07:06:53;;;;;;;4.30;3.67;;;;;;;;;;5056227;28;20020;-80
2021/12/01 07:09:21;;;;;;;5.22;4.00;;;8.80;99.90;;;;;;5056099;28;20498;-83
2021/12/01 07:11:47;;;;;;;5.15;4.45;;;8.80;99.90;;;;;;5054736;28;20063;-85
2021/12/01 07:14:13;;;;;;;5.70;4.78;;;8.80;99.90;;;;;;5056196;28;20053;-84
2021/12/01 07:16:38;;;;;;;5.97;5.30;;;8.90;99.90;;;;;;5054542;28;20071;-84
2021/12/01 07:19:06;;;;;;;8.35;5.28;;;8.90;99.90;;;;;;5054768;28;20025;-85
2021/12/01 07:21:32;;;;;;;8.38;6.43;;;8.90;99.90;;;;;;5056115;28;20056;-84
2021/12/01 07:23:57;;;;;;;9.50;7.05;;;8.90;99.90;;;;;;5055644;28;20036;-84
2021/12/01 07:26:23;;;;;;;8.52;6.75;;;8.90;99.90;;;;;;5055764;28;20455;-85
2021/12/01 07:28:48;;;;;;;9.07;6.30;;;8.90;99.90;;;;;;5056094;28;20029;-84
2021/12/01 07:31:14;;;;;;;9.10;7.55;;;9.00;99.90;;;;;;5055683;28;20493;-83
2021/12/01 07:33:39;;;;;;;15.45;8.38;;;9.00;99.90;;;;;;5055708;28;20110;-84
2021/12/01 07:36:05;;;;;;;11.63;7.93;;;9.00;99.90;;;;;;5055620;28;20017;-85
2021/12/01 07:38:31;;;;;;;9.32;7.43;;;9.00;99.90;;;;;;5055544;28;20041;-83
2021/12/01 07:40:57;;;;;;;9.93;7.35;;;9.10;99.90;;;;;;5055583;28;20032;-84
2021/12/01 07:43:23;;;;;;;11.55;7.72;;;9.10;99.90;;;;;;5055844;28;20351;-84
2021/12/01 07:45:48;;;;;;;10.85;8.75;;;9.10;99.90;;;;;;5055331;28;20526;-84
2021/12/01 07:48:14;;;;;;;11.95;8.35;;;9.10;99.90;;;;;;5055390;28;20110;-84
2021/12/01 07:50:41;;;;;;;15.10;9.65;;;9.10;99.90;;;;;;5055463;28;20029;-83
2021/12/01 07:53:07;;;;;;;10.52;7.30;;;9.20;99.90;;;;;;5055245;28;20120;-83
2021/12/01 07:55:33;;;;;;;10.15;7.85;;;9.30;99.90;;;;;;5055268;28;20075;-83
2021/12/01 07:57:58;;;;;;;11.75;8.65;;;9.30;99.90;;;;;;5055090;28;20029;-83
2021/12/01 08:00:24;;;;;;;12.90;8.57;;;9.30;99.90;;;;;;5055601;28;20036;-84
2021/12/01 08:02:49;;;;;;;10.23;7.28;;;9.40;99.90;;;;;;5053180;28;20386;-83
2021/12/01 08:05:15;;;;;;;9.43;7.68;;;9.40;99.90;;;;;;5054977;28;20021;-85
2021/12/01 08:07:41;;;;;;;9.02;7.22;;;9.50;99.90;;;;;;5054777;28;20035;-82
2021/12/01 08:10:07;;;;;;;10.80;8.00;;;9.40;99.90;;;;;;5054851;28;20157;-83
2021/12/01 08:12:34;;;;;;;15.85;8.02;;;9.50;99.90;;;;;;5054843;28;20029;-86
2021/12/01 08:15:03;;;;;;;10.02;6.90;;;9.50;99.90;;;;;;5054843;28;20021;-86
2021/12/01 08:17:29;;;;;;;9.57;5.43;;;9.50;99.90;;;;;;5054715;28;20027;-86
2021/12/01 08:19:57;;;;;;;12.43;7.40;;;9.60;99.90;;;;;;5053393;28;20114;-82
2021/12/01 08:22:27;;;;;;;11.20;7.30;;;9.60;99.90;;;;;;5053009;28;20048;-84
2021/12/01 08:24:54;;;;;;;11.68;7.22;;;9.60;99.90;;;;;;5053224;28;20021;-85
2021/12/01 08:27:21;;;;;;;14.02;6.82;;;9.60;99.90;;;;;;5054582;28;20025;-84
2021/12/01 08:29:46;;;;;;;10.18;6.68;;;9.60;99.90;;;;;;5053234;28;20121;-84
2021/12/01 08:32:12;;;;;;;12.00;7.18;;;9.60;99.90;;;;;;5054453;28;20056;-83
2021/12/01 08:34:38;;;;;;;11.30;7.07;;;9.60;99.90;;;;;;5053870;28;20049;-84
2021/12/01 08:37:07;;;;;;;15.02;7.88;;;9.60;99.90;;;;;;5053967;28;20039;-81
2021/12/01 08:39:33;;;;;;;13.98;7.32;;;9.50;99.90;;;;;;5053870;28;20032;-85
2021/12/01 08:41:59;;;;;;;13.68;6.15;;;9.60;99.90;;;;;;5052535;28;20017;-80
2021/12/01 08:44:24;;;;;;;15.52;7.32;;;9.60;99.90;;;;;;5052127;28;20017;-81
2021/12/01 08:46:50;;;;;;;11.18;5.40;;;9.50;99.90;;;;;;5053905;28;20028;-80
2021/12/01 08:49:16;;;;;;;15.57;6.97;;;9.50;99.90;;;;;;5053400;28;20029;-81
2021/12/01 08:51:41;;;;;;;12.40;6.63;;;9.60;99.90;;;;;;5052768;28;20028;-81
2021/12/01 08:54:09;;;;;;;10.95;5.10;;;9.50;99.90;;;;;;5054226;28;20030;-81
2021/12/01 08:56:35;;;;;;;8.13;3.22;;;9.60;99.90;;;;;;5053603;28;20017;-81
2021/12/01 08:59:02;;;;;;;15.05;4.15;;;9.50;99.90;;;;;;5052897;28;21079;-81
2021/12/01 09:01:27;;;;;;;8.35;2.83;;;9.40;99.90;;;;;;5052883;28;20028;-81
2021/12/01 09:03:53;;;;;;;11.48;2.97;;;9.40;99.90;;;;;;5053651;28;20716;-81
2021/12/01 09:06:18;;;;;;;7.80;2.90;;;9.40;99.90;;;;;;5053645;28;20025;-80
2021/12/01 09:08:44;;;;;;;6.20;2.42;;;9.30;99.90;;;;;;5053794;28;20519;-80
2021/12/01 09:11:10;;;;;;;8.27;1.88;;;9.30;99.90;;;;;;5053626;28;20021;-79
2021/12/01 09:13:36;;;;;;;6.05;2.10;;;9.30;99.90;;;;;;5052420;28;20041;-79
2021/12/01 09:16:03;;;;;;;9.88;1.55;;;9.20;99.90;;;;;;5052281;28;20059;-79
2021/12/01 09:18:29;;;;;;;7.03;1.50;;;9.20;99.90;;;;;;5051165;28;20028;-78
2021/12/01 09:20:56;;;;;;;5.22;1.00;;;9.20;99.90;;;;;;5052312;28;20071;-79
2021/12/01 09:23:22;;;;;;;11.98;1.65;;;;;;;;;;5043207;28;20025;-79
2021/12/01 09:25:49;;;;;;;6.22;1.20;;;;;;;;;;5045395;28;20471;-81
2021/12/01 09:28:18;;;;;;;7.20;1.00;;;9.20;99.90;;;;;;5053669;28;20104;-80
2021/12/01 09:30:45;;;;;;;6.15;1.15;;;9.20;99.90;;;;;;5052156;28;20124;-80
2021/12/01 09:33:11;;;;;;;6.30;1.42;;;9.20;99.90;;;;;;5053311;28;20463;-80
2021/12/01 09:35:36;;;;;;;13.65;1.63;;;9.20;99.90;;;;;;5052908;28;20084;-81
2021/12/01 09:38:02;;;;;;;9.23;1.00;;;9.10;99.90;;;;;;5053090;28;20424;-81
2021/12/01 09:40:28;;;;;;;10.15;1.20;;;9.10;99.90;;;;;;5053196;28;20017;-79
2021/12/01 09:42:55;;;;;;;13.80;1.15;;;9.10;99.90;;;;;;5052899;28;20070;-82
2021/12/01 09:45:24;;;;;;;8.00;1.13;;;9.10;99.90;;;;;;5053192;28;20481;-82
2021/12/01 09:47:51;;;;;;;12.27;1.40;;;9.20;99.90;;;;;;5051429;28;20106;-82
2021/12/01 09:50:18;;;;;;;8.00;1.55;;;9.20;99.90;;;;;;5045798;28;20476;-82
2021/12/01 09:52:44;;;;;;;5.78;0.98;;;9.20;99.90;;;;;;5033173;28;20364;-81
2021/12/01 09:55:12;;;;;;;8.35;1.10;;;9.20;99.90;;;;;;5033547;28;20055;-82
2021/12/01 09:57:51;;;;;;;5.90;0.80;;;9.20;99.90;;;;;;5032993;28;20029;-83
2021/12/01 10:00:16;;;;;;;5.35;0.57;;;9.30;99.90;;;;;;5033347;28;20017;-80
2021/12/01 10:02:42;;;;;;;6.50;1.13;;;9.30;99.90;;;;;;5034848;28;20021;-83
2021/12/01 10:05:08;;;;;;;8.43;0.90;;;9.30;99.90;;;;;;5050916;28;20032;-81
2021/12/01 10:07:34;;;;;;;6.15;0.70;;;9.30;99.90;;;;;;5050569;28;20060;-81
2021/12/01 10:10:09;;;;;;;5.75;0.80;;;9.30;99.90;;;;;;5053052;28;20040;-84
2021/12/01 10:12:50;;;;;;;8.98;0.90;;;9.30;99.90;;;;;;5052894;28;20021;-82
2021/12/01 10:15:29;;;;;;;9.05;1.20;;;9.20;99.90;;;;;;5052823;28;20074;-81
2021/12/01 10:18:09;;;;;;;5.30;0.85;;;9.10;99.90;;;;;;5052254;28;20032;-83
2021/12/01 10:20:35;;;;;;;8.88;1.02;;;9.00;99.90;;;;;;5052646;28;20026;-85
2021/12/01 10:23:15;;;;;;;4.95;0.80;;;8.90;99.90;;;;;;5046728;28;20021;-82
2021/12/01 10:25:44;;;;;;;8.65;0.90;;;8.80;99.90;;;;;;5035915;28;20375;-84
2021/12/01 10:28:40;;;;;;;6.15;0.90;;;8.80;99.90;;;;;;5056916;28;20119;-83
2021/12/01 10:31:06;;;;;;;10.00;1.15;;;8.90;99.90;;;;;;5056651;28;20574;-81
2021/12/01 10:33:32;;;;;;;6.47;0.98;;;8.80;99.90;;;;;;5056784;28;20108;-81
2021/12/01 10:36:03;;;;;;;6.60;1.52;;;8.80;99.90;;;;;;5055246;28;20496;-79
2021/12/01 10:38:32;;;;;;;8.48;1.15;;;8.90;99.90;;;;;;5056093;28;20080;-77
2021/12/01 10:41:10;;;;;;;3.28;0.90;;;9.00;99.90;;;;;;5056575;28;20024;-80
2021/12/01 10:43:47;;;;;;;10.38;1.58;;;9.00;99.90;;;;;;5056482;28;20100;-78
2021/12/01 10:46:18;;;;;;;5.57;0.90;;;9.10;99.90;;;;;;5041458;28;20025;-79
2021/12/01 10:48:59;;;;;;;6.90;1.58;;;9.00;99.90;;;;;;5053847;28;20536;-77
2021/12/01 10:51:39;;;;;;;14.30;1.38;;;9.00;99.90;;;;;;5052747;28;20479;-78
2021/12/01 10:54:17;;;;;;;10.82;1.95;;;9.00;99.90;;;;;;5054558;28;20100;-79
2021/12/01 10:56:43;;;;;;;5.93;1.20;;;9.00;99.90;;;;;;5053887;28;20143;-79
2021/12/01 10:59:14;;;;;;;9.32;1.45;;;8.90;99.90;;;;;;5054847;28;20550;-79
2021/12/01 11:01:40;;;;;;;7.50;1.00;;;8.90;99.90;;;;;;5053440;28;20049;-82
2021/12/01 11:04:06;;;;;;;14.27;1.35;;;8.90;99.90;;;;;;5053669;28;20031;-80
2021/12/01 11:06:41;;;;;;;11.52;1.95;;;9.00;99.90;;;;;;5053304;28;20028;-78
2021/12/01 11:09:08;;;;;;;10.02;1.52;;;8.90;99.90;;;;;;5055424;28;20032;-78
2021/12/01 11:11:43;;;;;;;7.70;1.60;;;9.00;99.90;;;;;;5055730;28;20075;-78
2021/12/01 11:14:14;;;;;;;12.32;1.10;;;9.10;99.90;;;;;;5054559;28;20720;-79
2021/12/01 11:16:41;;;;;;;13.35;2.75;;;9.20;99.90;;;;;;5055865;28;20056;-77
2021/12/01 11:19:08;;;;;;;8.05;1.13;;;9.20;99.90;;;;;;5054468;28;20027;-77
2021/12/01 11:21:37;;;;;;;14.82;1.20;;;9.20;99.90;;;;;;5055582;28;20029;-89
2021/12/01 11:24:08;;;;;;;6.13;0.95;;;9.20;99.90;;;;;;5054609;28;20525;-85
2021/12/01 11:26:34;;;;;;;5.28;1.50;;;9.10;99.90;;;;;;5054503;28;20029;-88
2021/12/01 11:29:05;;;;;;;9.80;1.10;;;9.20;99.90;;;;;;5054535;28;20440;-89
2021/12/01 11:31:38;;;;;;;5.85;1.10;;;9.30;99.90;;;;;;5053297;28;20402;-83
2021/12/01 11:34:07;;;;;;;10.60;1.15;;;9.30;99.90;;;;;;5052590;28;20123;-81
2021/12/01 11:36:38;;;;;;;16.15;2.28;;;9.30;99.90;;;;;;5063171;28;20021;-85
2021/12/01 11:39:22;;;;;;;8.70;1.08;;;9.20;99.90;;;;;;5049721;28;20037;-86
2021/12/01 11:41:50;;;;;;;11.68;1.23;;;9.20;99.90;;;;;;5053790;28;20063;-88
2021/12/01 11:44:20;;;;;;;11.75;1.30;;;9.20;99.90;;;;;;5052708;28;20028;-83
2021/12/01 11:46:48;;;;;;;14.07;1.33;;;9.30;99.90;;;;;;5054001;28;20017;-84
2021/12/01 11:49:16;;;;;;;13.15;1.50;;;9.40;99.90;;;;;;5054132;28;20032;-85
2021/12/01 11:52:04;;;;;;;10.75;1.20;;;9.40;99.90;;;;;;5053373;28;20021;-83
2021/12/01 11:54:31;;;;;;;9.30;1.50;;;9.40;99.90;;;;;;5050663;28;20018;-83
2021/12/01 11:56:59;;;;;;;6.57;1.10;;;9.40;99.90;;;;;;5052437;28;20159;-89
2021/12/01 11:59:36;;;;;;;11.85;1.90;;;9.40;99.90;;;;;;5054435;28;20396;-87
2021/12/01 12:02:07;;;;;;;8.70;1.30;;;9.30;99.90;;;;;;5054967;28;20359;-85
2021/12/01 12:04:43;;;;;;;9.63;1.67;;;9.30;99.90;;;;;;5054181;28;20029;-85
2021/12/01 12:07:12;;;;;;;11.75;2.03;;;9.40;99.90;;;;;;5048602;28;20031;-86
2021/12/01 12:09:39;;;;;;;10.85;1.50;;;9.40;99.90;;;;;;5051856;28;20079;-82
2021/12/01 12:12:14;;;;;;;14.13;1.35;;;9.50;99.90;;;;;;5053532;28;20133;-91
2021/12/01 12:14:50;;;;;;;12.38;1.50;;;9.70;99.90;;;;;;5052908;28;20016;-81
2021/12/01 12:17:19;;;;;;;6.50;1.38;;;9.70;99.90;;;;;;5049388;28;20090;-88
2021/12/01 12:20:02;;;;;;;12.43;2.47;;;9.70;99.90;;;;;;5053451;28;20446;-87
2021/12/01 12:22:50;;;;;;;13.60;2.05;;;9.70;99.90;;;;;;5050133;28;20023;-87
2021/12/01 12:25:43;;;;;;;8.70;1.13;;;9.70;99.90;;;;;;5053234;28;20039;-81
2021/12/01 12:28:24;;;;;;;12.65;1.30;;;9.70;99.90;;;;;;5054698;28;20033;-81
2021/12/01 12:30:51;;;;;;;12.85;1.75;;;9.50;99.90;;;;;;5049195;28;20040;-80
2021/12/01 12:33:31;;;;;;;12.38;1.38;;;9.40;99.90;;;;;;5054055;28;20028;-77
2021/12/01 12:36:03;;;;;;;9.50;1.25;;;9.40;99.90;;;;;;5050494;28;20398;-75
2021/12/01 12:38:29;;;;;;;14.23;1.50;;;9.40;99.90;;;;;;5051326;28;20036;-75
2021/12/01 12:41:06;;;;;;;10.93;1.38;;;9.30;99.90;;;;;;5053672;28;20120;-80
2021/12/01 12:43:32;;;;;;;12.98;1.30;;;9.40;99.90;;;;;;5053289;28;20100;-75
2021/12/01 12:46:15;;;;;;;11.75;1.10;;;9.40;99.90;;;;;;5053665;28;20102;-78
2021/12/01 12:48:50;;;;;;;9.48;1.75;;;9.50;99.90;;;;;;5050361;28;20101;-81
2021/12/01 12:51:33;;;;;;;13.07;2.20;;;9.40;99.90;;;;;;5043942;28;20048;-81
2021/12/01 12:54:02;;;;;;;13.50;1.58;;;9.50;99.90;;;;;;5053958;28;20375;-77
2021/12/01 12:56:43;;;;;;;11.77;1.33;;;9.40;99.90;;;;;;5053010;28;20017;-81
2021/12/01 12:59:32;;;;;;;9.75;1.17;;;9.40;99.90;;;;;;5032662;28;20030;-81
2021/12/01 13:02:09;;;;;;;11.15;0.93;;;9.40;99.90;;;;;;5050444;28;20025;-78
2021/12/01 13:04:47;;;;;;;11.07;1.88;;;9.40;99.90;;;;;;5052930;28;20056;-78
2021/12/01 13:07:34;;;;;;;8.10;1.35;;;9.40;99.90;;;;;;5051923;28;20031;-79
2021/12/01 13:10:15;;;;;;;6.05;1.30;;;9.30;99.90;;;;;;5053643;28;20029;-79